METAR Data
IDs: Format: Raw Decoded Include TAF

Data at: 1443 UTC 09 Dec 2019

KM54 091435Z AUTO 20016G26KT 10SM BKN021 BKN026 15/10 A2982 RMK A01
KM54 091415Z AUTO 20014G22KT 10SM BKN021 OVC027 15/10 A2982 RMK A01
KM54 091355Z AUTO 20016KT 10SM BKN021 OVC065 14/10 A2982 RMK A01
KM54 091335Z AUTO 20014G22KT 10SM BKN020 OVC070 14/09 A2982 RMK A01
KM54 091315Z AUTO 20016G28KT 10SM SCT021 OVC070 14/09 A2983 RMK A01
KM54 091255Z AUTO 20016G22KT 10SM OVC021 14/09 A2983 RMK A01
KM54 091235Z AUTO 19016G22KT 10SM BKN023 OVC075 14/09 A2984 RMK A01
KM54 091215Z AUTO 20013G21KT 10SM BKN023 OVC075 14/09 A2984 RMK A01
KM54 091155Z AUTO 19011G22KT 10SM BKN024 BKN030 OVC075 14/08 A2984 RMK A01
KM54 091135Z AUTO 19014G19KT 10SM OVC023 14/08 A2985 RMK A01
KM54 091115Z AUTO 19012G20KT 10SM OVC025 14/08 A2986 RMK A01
KM54 091055Z AUTO 20011G17KT 10SM BKN026 OVC035 13/08 A2987 RMK A01
KM54 091035Z AUTO 20010G21KT 10SM BKN027 OVC032 13/08 A2988 RMK A01
KM54 091015Z AUTO 19012G20KT 10SM OVC028 13/07 A2987 RMK A01
KM54 090955Z AUTO 20015KT 10SM BKN028 BKN038 OVC080 13/07 A2988 RMK A01
KM54 090935Z AUTO 19013G18KT 10SM BKN031 BKN049 OVC080 13/07 A2988 RMK A01
KM54 090915Z AUTO 19013KT 10SM BKN030 OVC036 13/07 A2990 RMK A01
KM54 090855Z AUTO 20012KT 10SM BKN030 OVC038 13/07 A2991 RMK A01
KM54 090835Z AUTO 19014KT 10SM OVC029 13/07 A2991 RMK A01
KM54 090815Z AUTO 20009G23KT 10SM OVC028 14/07 A2991 RMK A01
KM54 090755Z AUTO 19009G20KT 10SM OVC027 14/06 A2992 RMK A01
KM54 090735Z AUTO 19011G18KT 10SM OVC029 14/06 A2993 RMK A01
KM54 090715Z AUTO 20008G16KT 10SM OVC028 14/06 A2994 RMK A01
KM54 090655Z AUTO 18011G16KT 10SM OVC026 14/06 A2993 RMK A01
KM54 090635Z AUTO 18008G17KT 10SM OVC028 14/05 A2994 RMK A01
KM54 090615Z AUTO 17011G19KT 10SM OVC028 14/05 A2995 RMK A01
KM54 090555Z AUTO 19010KT 10SM OVC030 14/05 A2997 RMK A01
KM54 090535Z AUTO 18012G17KT 10SM OVC031 14/05 A2997 RMK A01
KM54 090515Z AUTO 18013KT 10SM OVC032 14/06 A2998 RMK A01
KM54 090455Z AUTO 19011G17KT 10SM BKN034 BKN042 OVC047 14/05 A2998 RMK A01
KM54 090435Z AUTO 19012G17KT 10SM BKN036 OVC043 14/05 A2999 RMK A01
KM54 090415Z AUTO 18013KT 10SM OVC031 14/05 A2999 RMK A01
KM54 090355Z AUTO 17012G17KT 10SM OVC030 14/06 A2998 RMK A01
KM54 090335Z AUTO 17011KT 10SM OVC033 14/06 A2999 RMK A01
KM54 090315Z AUTO 18009G15KT 10SM OVC034 14/05 A2999 RMK A01
KM54 090255Z AUTO 16010KT 10SM OVC034 14/05 A2999 RMK A01
KM54 090235Z AUTO 16012G18KT 10SM BKN035 OVC044 13/05 A2999 RMK A01
KM54 090215Z AUTO 17011G16KT 10SM BKN037 BKN044 OVC049 13/05 A3000 RMK A01
KM54 090155Z AUTO 17010KT 10SM BKN036 BKN050 13/05 A3001 RMK A01
KM54 090135Z AUTO 17009KT 10SM SCT035 BKN041 SCT050 14/05 A3001 RMK A01
KM54 090115Z AUTO 17009KT 10SM BKN037 BKN043 OVC065 14/06 A3002 RMK A01
KM54 090055Z AUTO 16008KT 10SM FEW039 SCT046 OVC060 14/06 A3003 RMK A01
KM54 090035Z AUTO 17008G15KT 10SM SCT041 BKN048 OVC065 14/06 A3003 RMK A01
KM54 090015Z AUTO 17009KT 10SM BKN041 OVC049 14/06 A3004 RMK A01
KM54 082355Z AUTO 17009KT 10SM BKN041 OVC050 15/06 A3004 RMK A01
KM54 082335Z AUTO 17007KT 10SM SCT041 BKN050 OVC070 14/06 A3004 RMK A01
KM54 082315Z AUTO 17008G13KT 10SM SCT041 BKN060 OVC070 14/06 A3002 RMK A01
KM54 082255Z AUTO 16008KT 10SM SCT041 BKN060 OVC070 15/06 A3003 RMK A01
KM54 082235Z AUTO 16006KT 10SM OVC040 15/07 A3004 RMK A01
KM54 082215Z AUTO 19009KT 10SM OVC040 15/07 A3005 RMK A01
KM54 082155Z AUTO 18010KT 10SM OVC040 15/07 A3004 RMK A01
KM54 082135Z AUTO 16008G14KT 10SM OVC040 16/07 A3005 RMK A01
KM54 082115Z AUTO 18012KT 10SM OVC041 16/07 A3005 RMK A01
KM54 082055Z AUTO 18012KT 10SM BKN042 OVC055 16/07 A3005 RMK A01
KM54 082035Z AUTO 18010G19KT 10SM SCT044 BKN055 OVC070 16/07 A3006 RMK A01
KM54 082015Z AUTO 18010G16KT 10SM BKN045 OVC050 16/07 A3005 RMK A01
KM54 081955Z AUTO 16012KT 10SM SCT045 BKN065 16/07 A3006 RMK A01
KM54 081935Z AUTO 18011G19KT 10SM SCT043 OVC065 17/07 A3007 RMK A01
KM54 081915Z AUTO 20013G19KT 10SM BKN042 BKN065 17/07 A3008 RMK A01
KM54 081855Z AUTO 19014KT 10SM BKN040 OVC060 17/07 A3008 RMK A01
KM54 081835Z AUTO 19013KT 10SM FEW041 OVC060 17/07 A3009 RMK A01
KM54 081815Z AUTO 20016G21KT 10SM OVC060 17/07 A3009 RMK A01
KM54 081755Z AUTO 20014G21KT 10SM OVC060 16/07 A3011 RMK A01
KM54 081735Z AUTO 18011KT 10SM OVC060 15/07 A3012 RMK A01
KM54 081715Z AUTO 19013KT 10SM OVC060 15/07 A3014 RMK A01
KM54 081655Z AUTO 20011KT 10SM OVC060 14/06 A3016 RMK A01
KM54 081635Z AUTO 19013G18KT 10SM OVC060 14/06 A3016 RMK A01
KM54 081615Z AUTO 19016G22KT 10SM OVC060 14/06 A3017 RMK A01
KM54 081555Z AUTO 18013G18KT 10SM OVC060 14/06 A3017 RMK A01
KM54 081535Z AUTO 18011G16KT 10SM OVC055 13/06 A3019 RMK A01
KM54 081515Z AUTO 19011KT 10SM OVC060 12/06 A3020 RMK A01
KM54 081455Z AUTO 18011KT 10SM OVC060 12/06 A3020 RMK A01
KM54 081435Z AUTO 19008G13KT 10SM OVC055 11/06 A3020 RMK A01
KM54 081415Z AUTO 19008KT 10SM OVC055 11/06 A3020 RMK A01
KM54 081355Z AUTO 00000KT 10SM OVC055 05/04 A3020 RMK A01
KM54 081335Z AUTO 00000KT 10SM OVC055 04/03 A3020 RMK A01
KM54 081315Z AUTO 00000KT 10SM OVC055 03/03 A3021 RMK A01
KM54 081255Z AUTO 00000KT 10SM OVC055 03/02 A3020 RMK A01
KM54 081235Z AUTO 00000KT 10SM BKN055 02/01 A3021 RMK A01
KM54 081215Z AUTO 00000KT 10SM OVC050 02/01 A3021 RMK A01
KM54 081155Z AUTO 35003KT 10SM OVC050 01/00 A3020 RMK A01
KM54 081135Z AUTO 00000KT 10SM OVC050 00/M00 A3019 RMK A01
KM54 081115Z AUTO 00000KT 9SM FEW029 SCT044 BKN050 00/M00 A3019 RMK A01
KM54 081055Z AUTO 00000KT 10SM FEW028 SCT035 BKN050 00/M00 A3018 RMK A01
KM54 081035Z AUTO 00000KT 10SM SCT036 SCT047 00/M00 A3018 RMK A01
KM54 081015Z AUTO 00000KT 10SM FEW037 SCT048 00/M00 A3018 RMK A01
KM54 080955Z AUTO 00000KT 8SM FEW036 SCT048 SCT085 00/M00 A3018 RMK A01
KM54 080935Z AUTO 00000KT 10SM SCT032 SCT037 BKN044 01/00 A3018 RMK A01
KM54 080915Z AUTO 00000KT 9SM BKN033 OVC043 00/M00 A3018 RMK A01
KM54 080855Z AUTO 00000KT 9SM OVC033 01/00 A3019 RMK A01
KM54 080835Z AUTO 00000KT 7SM OVC031 01/01 A3020 RMK A01
KM54 080815Z AUTO 00000KT 10SM SCT030 BKN036 BKN050 01/00 A3021 RMK A01
KM54 080755Z AUTO 00000KT 9SM FEW031 BKN041 BKN046 01/01 A3021 RMK A01
KM54 080735Z AUTO 00000KT 8SM BKN043 BKN050 BKN055 01/01 A3021 RMK A01
KM54 080715Z AUTO 00000KT 10SM BKN044 BKN049 02/01 A3022 RMK A01
KM54 080655Z AUTO 00000KT 10SM OVC046 01/01 A3022 RMK A01
KM54 080635Z AUTO 00000KT 6SM BR BKN045 02/01 A3022 RMK A01
KM54 080615Z AUTO 00000KT 10SM BKN044 02/01 A3022 RMK A01
KM54 080555Z AUTO 00000KT 7SM BKN045 01/01 A3023 RMK A01
KM54 080535Z AUTO 00000KT 7SM BKN045 BKN050 02/02 A3023 RMK A01
KM54 080515Z AUTO 00000KT 7SM BKN045 BKN050 02/01 A3024 RMK A01
KM54 080455Z AUTO 00000KT 9SM BKN047 02/02 A3024 RMK A01
KM54 080435Z AUTO 00000KT 7SM SCT049 03/02 A3024 RMK A01
KM54 080415Z AUTO 00000KT 8SM SCT048 03/02 A3024 RMK A01
KM54 080355Z AUTO 00000KT 8SM SCT047 03/03 A3025 RMK A01
KM54 080335Z AUTO 00000KT 8SM BKN048 03/03 A3025 RMK A01
KM54 080315Z AUTO 00000KT 10SM BKN044 BKN049 03/02 A3025 RMK A01
KM54 080255Z AUTO 00000KT 10SM BKN044 03/03 A3025 RMK A01